createdAt,value
2019-06-07T00:01:57.244Z,16.11
2019-06-07T00:04:29.561Z,16.11
2019-06-07T00:07:02.034Z,16.12
2019-06-07T00:09:34.815Z,16.13
2019-06-07T00:12:09.498Z,16.13
2019-06-07T00:14:41.007Z,16.08
2019-06-07T00:17:15.472Z,15.97
2019-06-07T00:19:47.115Z,15.85
2019-06-07T00:22:32.197Z,15.70
2019-06-07T00:24:53.656Z,15.57
2019-06-07T00:27:26.134Z,15.41
2019-06-07T00:29:59.020Z,15.13
2019-06-07T00:32:31.705Z,14.94
2019-06-07T00:35:06.431Z,14.86
2019-06-07T00:37:38.904Z,14.90
2019-06-07T00:40:17.840Z,15.01
2019-06-07T00:42:46.265Z,15.12
2019-06-07T00:45:21.873Z,15.21
2019-06-07T00:47:53.407Z,15.26
2019-06-07T00:50:26.091Z,15.31
2019-06-07T00:53:14.661Z,15.35
2019-06-07T00:55:32.879Z,15.38
2019-06-07T00:58:07.299Z,15.40
2019-06-07T01:00:39.778Z,15.40
2019-06-07T01:03:12.706Z,15.40
2019-06-07T01:05:45.146Z,15.39
2019-06-07T01:08:21.534Z,15.35
2019-06-07T01:10:53.937Z,15.31
2019-06-07T01:13:26.891Z,15.29
2019-06-07T01:15:59.336Z,15.27
2019-06-07T01:18:38.252Z,15.27
2019-06-07T01:21:06.334Z,15.24
2019-06-07T01:24:10.885Z,15.21
2019-06-07T01:26:13.022Z,15.18
2019-06-07T01:28:45.806Z,15.12
2019-06-07T01:31:21.086Z,14.93
2019-06-07T01:33:51.720Z,14.75
2019-06-07T01:36:25.239Z,14.57
2019-06-07T01:38:58.268Z,14.50
2019-06-07T01:41:31.149Z,14.44
2019-06-07T01:44:03.728Z,14.40
2019-06-07T01:46:36.513Z,14.28
2019-06-07T01:49:09.393Z,14.09
2019-06-07T01:51:42.076Z,13.95
2019-06-07T01:54:49.453Z,13.85
2019-06-07T01:56:48.763Z,13.78
2019-06-07T01:59:23.265Z,13.73
2019-06-07T02:01:55.863Z,13.72
2019-06-07T02:04:32.393Z,13.80
2019-06-07T02:07:02.022Z,13.86
2019-06-07T02:09:34.414Z,13.92
2019-06-07T02:12:25.036Z,13.96
2019-06-07T02:14:40.299Z,14.04
2019-06-07T02:17:12.662Z,14.13
2019-06-07T02:19:45.470Z,14.14
2019-06-07T02:22:17.922Z,14.10
2019-06-07T02:25:27.693Z,14.00
2019-06-07T02:27:26.070Z,13.91
2019-06-07T02:29:59.055Z,13.91
2019-06-07T02:32:36.599Z,13.86
2019-06-07T02:35:08.500Z,13.78
2019-06-07T02:37:40.535Z,13.78
2019-06-07T02:40:16.099Z,13.83
2019-06-07T02:42:48.568Z,13.89
2019-06-07T02:45:24.168Z,14.06
2019-06-07T02:47:54.772Z,14.28
2019-06-07T02:50:29.219Z,14.42
2019-06-07T02:53:01.662Z,14.50
2019-06-07T02:56:10.620Z,14.61
2019-06-07T02:58:08.647Z,14.70
2019-06-07T03:01:08.905Z,14.77
2019-06-07T03:03:29.933Z,14.91
2019-06-07T03:05:59.394Z,15.03
2019-06-07T03:08:35.514Z,15.13
2019-06-07T03:11:08.628Z,15.24
2019-06-07T03:13:42.291Z,15.38
2019-06-07T03:16:23.204Z,15.53
2019-06-07T03:19:01.307Z,15.65
2019-06-07T03:21:37.465Z,15.74
2019-06-07T03:24:10.219Z,15.78
2019-06-07T03:29:16.049Z,15.79
2019-06-07T03:31:48.494Z,15.82
2019-06-07T03:34:21.178Z,15.91
2019-06-07T03:36:53.953Z,16.00
2019-06-07T03:39:28.396Z,16.07
2019-06-07T03:42:06.409Z,16.20
2019-06-07T03:44:37.775Z,16.31
2019-06-07T03:47:07.365Z,16.41
2019-06-07T03:49:42.616Z,16.53
2019-06-07T03:52:13.029Z,16.63
2019-06-07T03:54:45.488Z,16.74
2019-06-07T03:57:18.062Z,16.83
2019-06-07T03:59:51.514Z,16.92
2019-06-07T04:02:24.233Z,17.04
2019-06-07T04:04:56.662Z,17.14
2019-06-07T04:07:30.665Z,17.30
2019-06-07T04:10:05.346Z,17.45
2019-06-07T04:12:41.200Z,17.68
2019-06-07T04:15:12.345Z,17.94
2019-06-07T04:18:00.733Z,18.14
2019-06-07T04:20:18.065Z,18.33
2019-06-07T04:22:50.382Z,18.50
2019-06-07T04:25:23.397Z,18.65
2019-06-07T04:27:55.949Z,18.82
2019-06-07T04:30:41.893Z,19.01
2019-06-07T04:33:15.463Z,19.23
2019-06-07T04:35:48.224Z,19.48
2019-06-07T04:38:21.522Z,19.74
2019-06-07T04:40:55.145Z,19.98
2019-06-07T04:43:31.455Z,20.18
2019-06-07T04:46:05.088Z,20.35
2019-06-07T04:48:42.984Z,20.51
2019-06-07T04:51:15.483Z,20.65
2019-06-07T04:53:47.938Z,20.77
2019-06-07T04:56:20.821Z,20.88
2019-06-07T04:58:53.439Z,20.96
2019-06-07T05:01:27.617Z,21.06
2019-06-07T05:03:59.890Z,21.17
2019-06-07T05:06:34.843Z,21.26
2019-06-07T05:09:07.293Z,21.37
2019-06-07T05:11:44.852Z,21.47
2019-06-07T05:14:13.671Z,21.58
2019-06-07T05:16:46.456Z,21.68
2019-06-07T05:19:19.271Z,21.73
2019-06-07T05:22:03.651Z,21.80
2019-06-07T05:24:26.133Z,21.82
2019-06-07T05:26:58.607Z,21.87
2019-06-07T05:29:33.290Z,21.95
2019-06-07T05:32:05.403Z,22.05
2019-06-07T05:34:41.916Z,22.13
2019-06-07T05:37:12.395Z,22.21
2019-06-07T05:39:46.483Z,22.28
2019-06-07T05:42:18.984Z,22.36
2019-06-07T05:44:51.565Z,22.45
2019-06-07T05:47:25.504Z,22.55
2019-06-07T05:49:58.045Z,22.61
2019-06-07T05:52:30.659Z,22.70
2019-06-07T05:55:03.615Z,22.76
2019-06-07T05:57:38.115Z,22.83
2019-06-07T06:00:10.108Z,22.90
2019-06-07T06:03:00.218Z,22.99
2019-06-07T06:05:32.574Z,23.08
2019-06-07T06:07:51.174Z,23.17
2019-06-07T06:10:23.688Z,23.31
2019-06-07T06:12:56.261Z,23.41
2019-06-07T06:15:42.501Z,23.51
2019-06-07T06:18:03.486Z,23.55
2019-06-07T06:21:02.219Z,23.62
2019-06-07T06:23:10.470Z,23.66
2019-06-07T06:25:50.849Z,23.73
2019-06-07T06:28:17.264Z,23.83
2019-06-07T06:30:50.094Z,23.83
2019-06-07T06:33:33.490Z,23.83
2019-06-07T06:35:56.838Z,23.86
2019-06-07T06:38:29.410Z,23.99
2019-06-07T06:41:15.040Z,24.13
2019-06-07T06:43:38.348Z,24.28
2019-06-07T06:46:10.629Z,24.31
2019-06-07T06:48:50.928Z,24.31
2019-06-07T06:51:17.109Z,24.31
2019-06-07T06:53:52.559Z,24.33
2019-06-07T06:56:25.639Z,24.39
2019-06-07T06:59:35.158Z,24.54
2019-06-07T07:01:33.152Z,24.73
2019-06-07T07:20:02.618Z,25.75
2019-06-07T07:22:36.268Z,25.92
2019-06-07T07:25:09.249Z,26.11
2019-06-07T07:27:42.435Z,26.35
2019-06-07T07:30:36.623Z,26.63
2019-06-07T07:32:51.298Z,26.86
2019-06-07T07:35:24.129Z,27.07
2019-06-07T07:38:00.323Z,27.22
2019-06-07T07:40:57.054Z,27.39
2019-06-07T07:43:07.692Z,27.53
2019-06-07T07:45:40.328Z,27.55
2019-06-07T07:48:17.829Z,27.60
2019-06-07T07:50:49.677Z,27.64
2019-06-07T07:53:21.173Z,27.81
2019-06-07T07:55:59.685Z,28.03
2019-06-07T07:58:27.977Z,28.15
2019-06-07T08:01:10.158Z,28.22
2019-06-07T08:03:34.780Z,28.15
2019-06-07T08:06:07.560Z,28.02
2019-06-07T08:08:40.023Z,27.91
2019-06-07T08:11:12.954Z,27.78
2019-06-07T08:13:45.795Z,27.67
2019-06-07T08:16:19.927Z,27.55
2019-06-07T08:18:57.011Z,27.40
2019-06-07T08:21:27.395Z,27.33
2019-06-07T08:24:03.594Z,27.17
2019-06-07T08:26:33.713Z,26.99
2019-06-07T08:29:06.215Z,26.93
2019-06-07T08:31:38.972Z,26.96
2019-06-07T08:34:11.244Z,27.06
2019-06-07T08:36:43.906Z,27.16
2019-06-07T08:39:16.381Z,27.16
2019-06-07T08:41:59.416Z,27.11
2019-06-07T08:44:25.612Z,27.10
2019-06-07T08:47:16.721Z,26.97
2019-06-07T08:49:32.630Z,26.88
2019-06-07T08:52:11.491Z,26.81
2019-06-07T08:54:39.623Z,26.79
2019-06-07T08:57:21.286Z,26.78
2019-06-07T08:59:46.225Z,26.76
2019-06-07T09:02:23.729Z,26.68
2019-06-07T09:04:56.380Z,26.62
2019-06-07T09:07:27.022Z,26.60
2019-06-07T09:10:01.826Z,26.62
2019-06-07T09:12:33.920Z,26.61
2019-06-07T09:15:20.628Z,26.62
2019-06-07T09:18:29.729Z,26.64
2019-06-07T09:20:35.630Z,26.61
2019-06-07T09:22:51.902Z,26.47
2019-06-07T09:25:24.597Z,26.40
2019-06-07T09:28:00.677Z,26.26
2019-06-07T09:30:45.077Z,26.05
2019-06-07T09:33:17.470Z,25.77
2019-06-07T09:35:50.117Z,25.62
2019-06-07T09:38:26.194Z,25.52
2019-06-07T09:40:58.124Z,25.51
2019-06-07T09:44:00.580Z,25.51
2019-06-07T09:46:11.843Z,25.55
2019-06-07T09:51:19.349Z,25.70
2019-06-07T09:53:46.898Z,25.87
2019-06-07T09:56:20.808Z,25.99
2019-06-07T09:58:54.390Z,26.14
2019-06-07T10:01:27.093Z,26.33
2019-06-07T10:04:04.644Z,26.41
2019-06-07T10:06:33.775Z,26.56
2019-06-07T10:11:42.818Z,26.79
2019-06-07T10:14:15.341Z,26.79
2019-06-07T10:16:48.521Z,26.74
2019-06-07T10:33:55.962Z,26.70
2019-06-07T10:36:28.559Z,26.82
2019-06-07T10:39:01.127Z,27.05
2019-06-07T10:41:35.293Z,27.27
2019-06-07T10:44:09.308Z,27.38
2019-06-07T10:46:41.887Z,27.38
2019-06-07T10:49:14.783Z,27.19
2019-06-07T10:51:47.346Z,27.14
2019-06-07T10:54:26.795Z,27.09
2019-06-07T10:56:53.935Z,27.06
2019-06-07T10:59:26.416Z,27.02
2019-06-07T11:01:59.188Z,27.06
2019-06-07T11:04:31.866Z,27.17
2019-06-07T11:07:05.020Z,27.33
2019-06-07T11:09:38.263Z,27.34
2019-06-07T11:12:10.970Z,27.37
2019-06-07T11:14:43.720Z,27.47
2019-06-07T11:17:17.864Z,27.58
2019-06-07T11:19:50.404Z,27.84
2019-06-07T11:22:22.778Z,28.12
2019-06-07T11:24:55.354Z,28.24
2019-06-07T11:27:28.141Z,28.19
2019-06-07T11:30:00.918Z,28.09
2019-06-07T11:32:33.503Z,28.16
2019-06-07T11:35:08.463Z,28.32
2019-06-07T11:37:40.912Z,28.32
2019-06-07T11:40:32.078Z,28.26
2019-06-07T11:42:48.313Z,28.07
2019-06-07T11:45:21.297Z,27.67
2019-06-07T11:47:53.671Z,27.43
2019-06-07T11:50:26.251Z,27.43
2019-06-07T11:52:58.981Z,27.53
2019-06-07T11:55:31.814Z,27.74
2019-06-07T11:58:04.491Z,27.99
2019-06-07T12:00:37.994Z,28.35
2019-06-07T12:03:11.536Z,28.63
2019-06-07T12:05:43.384Z,28.78
2019-06-07T12:08:16.644Z,28.78
2019-06-07T12:10:49.218Z,28.81
2019-06-07T12:13:22.018Z,28.77
2019-06-07T12:15:54.886Z,28.72
2019-06-07T12:18:27.674Z,28.67
2019-06-07T12:21:00.258Z,28.75
2019-06-07T12:23:32.832Z,28.99
2019-06-07T12:26:05.509Z,29.16
2019-06-07T12:28:38.287Z,29.37
2019-06-07T12:31:10.965Z,29.54
2019-06-07T12:33:43.442Z,29.57
2019-06-07T12:36:16.169Z,29.50
2019-06-07T12:38:48.695Z,29.44
2019-06-07T12:41:22.398Z,29.37
2019-06-07T12:43:59.098Z,29.35
2019-06-07T12:46:30.016Z,29.39
2019-06-07T12:49:02.698Z,29.40
2019-06-07T12:51:35.066Z,29.41
2019-06-07T12:54:07.852Z,29.45
2019-06-07T12:56:40.425Z,29.52
2019-06-07T12:59:13.893Z,29.53
2019-06-07T13:01:46.313Z,29.47
2019-06-07T13:04:19.006Z,29.61
2019-06-07T13:06:51.144Z,29.84
2019-06-07T13:09:24.019Z,29.95
2019-06-07T13:11:56.725Z,29.77
2019-06-07T13:14:29.284Z,29.71
2019-06-07T13:17:01.668Z,29.72
2019-06-07T13:19:34.168Z,29.75
2019-06-07T13:22:07.125Z,29.73
2019-06-07T13:24:39.698Z,29.80
2019-06-07T13:27:12.178Z,29.84
2019-06-07T13:29:44.860Z,29.80
2019-06-07T13:32:17.570Z,29.72
2019-06-07T13:34:50.218Z,29.57
2019-06-07T13:37:23.394Z,29.41
2019-06-07T13:39:55.989Z,29.23
2019-06-07T13:42:28.766Z,29.00
2019-06-07T13:45:01.448Z,28.77
2019-06-07T13:47:33.919Z,28.59
2019-06-07T13:50:09.959Z,28.50
2019-06-07T13:52:46.744Z,28.39
2019-06-07T13:55:20.099Z,28.34
2019-06-07T13:57:52.523Z,28.28
2019-06-07T14:00:26.503Z,28.47
2019-06-07T14:02:59.052Z,28.78
2019-06-07T14:05:31.630Z,28.93
2019-06-07T14:08:04.369Z,28.96
2019-06-07T14:10:36.944Z,28.86
2019-06-07T14:13:09.625Z,28.60
2019-06-07T14:15:42.471Z,28.34
2019-06-07T14:18:15.909Z,28.35
2019-06-07T14:20:48.483Z,28.45
2019-06-07T14:23:38.862Z,28.44
2019-06-07T14:25:54.973Z,28.30
2019-06-07T14:28:30.836Z,28.39
2019-06-07T14:31:01.869Z,28.77
2019-06-07T14:33:34.344Z,28.94
2019-06-07T14:36:07.123Z,28.65
2019-06-07T14:38:39.803Z,28.17
2019-06-07T14:41:12.277Z,27.76
2019-06-07T14:43:45.209Z,27.30
2019-06-07T14:46:17.636Z,26.73
2019-06-07T14:48:50.222Z,26.47
2019-06-07T14:51:24.166Z,26.45
2019-06-07T14:53:56.597Z,26.24
2019-06-07T14:56:29.640Z,26.29
2019-06-07T14:59:02.376Z,26.95
2019-06-07T15:01:35.666Z,27.88
2019-06-07T15:04:08.446Z,28.86
2019-06-07T15:06:41.224Z,29.81
2019-06-07T15:09:13.706Z,30.64
2019-06-07T15:11:46.483Z,31.22
2019-06-07T15:14:19.062Z,31.86
2019-06-07T15:16:52.535Z,32.78
2019-06-07T15:19:24.978Z,33.59
2019-06-07T15:21:57.715Z,34.37
2019-06-07T15:27:10.652Z,35.57
2019-06-07T15:29:43.330Z,36.16
2019-06-07T15:32:15.910Z,36.34
2019-06-07T15:34:49.411Z,36.34
2019-06-07T15:37:22.184Z,36.68
2019-06-07T15:39:53.766Z,36.81
2019-06-07T15:42:40.680Z,37.01
2019-06-07T15:45:00.025Z,37.08
2019-06-07T15:47:32.014Z,36.07
2019-06-07T15:50:08.353Z,34.50
2019-06-07T15:52:43.177Z,34.57
2019-06-07T15:55:15.606Z,34.57
2019-06-07T15:57:48.034Z,34.94
2019-06-07T16:00:20.479Z,35.21
2019-06-07T16:02:53.904Z,35.24
2019-06-07T16:05:26.190Z,35.45
2019-06-07T16:07:58.472Z,35.13
2019-06-07T16:10:30.842Z,34.99
2019-06-07T16:13:03.317Z,34.88
2019-06-07T16:15:37.399Z,34.58
2019-06-07T16:18:09.784Z,33.98
2019-06-07T16:20:43.770Z,33.44
2019-06-07T16:23:17.093Z,32.96
2019-06-07T16:25:51.099Z,32.41
2019-06-07T16:28:24.227Z,31.81
2019-06-07T16:30:56.574Z,31.19
2019-06-07T16:33:29.241Z,30.71
2019-06-07T16:36:01.946Z,30.17
2019-06-07T16:38:36.280Z,29.57
2019-06-07T16:41:10.763Z,29.04
2019-06-07T16:43:44.777Z,28.45
2019-06-07T16:46:17.154Z,27.93
2019-06-07T16:48:49.823Z,27.50
2019-06-07T16:51:22.814Z,27.17
2019-06-07T16:53:56.036Z,26.86
2019-06-07T16:56:28.485Z,26.62
2019-06-07T16:59:01.606Z,26.45
2019-06-07T17:01:34.567Z,26.26
2019-06-07T17:04:07.058Z,26.06
2019-06-07T17:06:39.567Z,25.89
2019-06-07T17:09:12.092Z,25.70
2019-06-07T17:11:44.766Z,25.56
2019-06-07T17:14:17.143Z,25.43
2019-06-07T17:16:50.306Z,25.32
2019-06-07T17:19:23.011Z,25.20
2019-06-07T17:21:55.590Z,25.06
2019-06-07T17:24:29.037Z,24.89
2019-06-07T17:27:01.460Z,24.73
2019-06-07T17:29:34.246Z,24.41
2019-06-07T17:32:06.925Z,24.41
2019-06-07T17:34:39.924Z,24.29
2019-06-07T17:37:12.355Z,24.17
2019-06-07T17:39:45.092Z,24.06
2019-06-07T17:42:17.482Z,23.97
2019-06-07T17:44:51.338Z,23.91
2019-06-07T17:47:23.821Z,23.86
2019-06-07T17:49:56.608Z,23.82
2019-06-07T17:52:29.488Z,23.79
2019-06-07T17:55:02.277Z,23.79
2019-06-07T17:57:34.961Z,23.78
2019-06-07T18:00:28.142Z,23.79
2019-06-07T18:02:47.378Z,23.79
2019-06-07T18:05:20.211Z,23.76
2019-06-07T18:07:53.880Z,23.75
2019-06-07T18:10:38.231Z,23.70
2019-06-07T18:13:10.929Z,23.63
2019-06-07T18:15:52.868Z,23.55
2019-06-07T18:18:22.813Z,23.49
2019-06-07T18:20:55.711Z,23.40
2019-06-07T18:23:28.270Z,23.33
2019-06-07T18:26:00.769Z,23.22
2019-06-07T18:28:33.320Z,23.12
2019-06-07T18:31:06.003Z,23.01
2019-06-07T18:33:38.578Z,22.89
2019-06-07T18:36:11.053Z,22.80
2019-06-07T18:38:43.837Z,22.73
2019-06-07T18:41:16.634Z,22.67
2019-06-07T18:43:49.265Z,22.63
2019-06-07T18:46:21.675Z,22.57
2019-06-07T18:48:54.761Z,22.52
2019-06-07T18:51:27.641Z,22.47
2019-06-07T18:54:00.220Z,22.44
2019-06-07T18:56:34.132Z,22.43
2019-06-07T18:59:06.507Z,22.40
2019-06-07T19:01:38.872Z,22.36
2019-06-07T19:04:11.455Z,22.34
2019-06-07T19:06:44.951Z,22.27
2019-06-07T19:09:17.839Z,22.19
2019-06-07T19:11:50.893Z,22.10
2019-06-07T19:14:36.256Z,22.01
2019-06-07T19:16:57.599Z,21.92
2019-06-07T19:19:30.189Z,21.86
2019-06-07T19:22:02.774Z,21.75
2019-06-07T19:24:35.348Z,21.68
2019-06-07T19:27:07.831Z,21.59
2019-06-07T19:29:41.164Z,21.53
2019-06-07T19:32:14.003Z,21.46
2019-06-07T19:34:46.706Z,21.36
2019-06-07T19:37:19.057Z,21.29
2019-06-07T19:39:51.767Z,21.22
2019-06-07T19:42:24.413Z,21.18
2019-06-07T19:45:09.727Z,21.12
2019-06-07T19:47:31.210Z,20.99
2019-06-07T19:50:04.088Z,20.89
2019-06-07T19:52:36.566Z,20.82
2019-06-07T19:55:10.468Z,20.77
2019-06-07T19:57:44.179Z,20.74
2019-06-07T20:00:18.295Z,20.69
2019-06-07T20:02:50.976Z,20.64
2019-06-07T20:05:23.764Z,20.60
2019-06-07T20:07:56.516Z,20.55
2019-06-07T20:10:29.233Z,20.52
2019-06-07T20:13:02.954Z,20.45
2019-06-07T20:15:34.688Z,20.39
2019-06-07T20:18:07.681Z,20.35
2019-06-07T20:20:40.346Z,20.30
2019-06-07T20:23:13.124Z,20.24
2019-06-07T20:25:45.626Z,20.18
2019-06-07T20:28:18.180Z,20.13
2019-06-07T20:30:52.257Z,20.09
2019-06-07T20:33:24.078Z,20.05
2019-06-07T20:35:56.685Z,20.00
2019-06-07T20:38:29.390Z,19.95
2019-06-07T20:41:01.783Z,19.92
2019-06-07T20:43:34.466Z,19.87
2019-06-07T20:46:08.202Z,19.83
2019-06-07T20:48:40.846Z,19.78
2019-06-07T20:51:13.378Z,19.74
2019-06-07T20:53:45.687Z,19.70
2019-06-07T20:56:18.356Z,19.67
2019-06-07T20:58:51.057Z,19.63
2019-06-07T21:01:23.737Z,19.60
2019-06-07T21:03:56.408Z,19.55
2019-06-07T21:06:29.093Z,19.52
2019-06-07T21:09:01.769Z,19.48
2019-06-07T21:11:36.187Z,19.45
2019-06-07T21:14:08.774Z,19.43
2019-06-07T21:16:41.294Z,19.39
2019-06-07T21:19:14.021Z,19.35
2019-06-07T21:21:46.724Z,19.33
2019-06-07T21:24:19.181Z,19.34
2019-06-07T21:26:53.362Z,19.32
2019-06-07T21:29:25.281Z,19.31
2019-06-07T21:31:57.318Z,19.31
2019-06-07T21:34:30.101Z,19.30
2019-06-07T21:37:03.769Z,19.30
2019-06-07T21:39:37.204Z,19.29
2019-06-07T21:42:10.292Z,19.27
2019-06-07T21:44:42.769Z,19.23
2019-06-07T21:47:15.446Z,19.20
2019-06-07T21:49:48.135Z,19.17
2019-06-07T21:52:20.707Z,19.12
2019-06-07T21:54:53.280Z,19.07
2019-06-07T21:57:26.068Z,19.02
2019-06-07T21:59:58.637Z,18.99
2019-06-07T22:02:31.214Z,18.95
2019-06-07T22:05:05.626Z,18.93
2019-06-07T22:07:38.344Z,18.89
2019-06-07T22:10:12.509Z,18.87
2019-06-07T22:12:45.016Z,18.86
2019-06-07T22:15:32.169Z,18.85
2019-06-07T22:17:52.417Z,18.86
2019-06-07T22:20:24.992Z,18.86
2019-06-07T22:22:57.780Z,18.83
2019-06-07T22:25:30.348Z,18.81
2019-06-07T22:28:02.930Z,18.80
2019-06-07T22:30:35.411Z,18.80
2019-06-07T22:33:08.650Z,18.77
2019-06-07T22:35:41.178Z,18.72
2019-06-07T22:38:14.266Z,18.70
2019-06-07T22:40:46.839Z,18.69
2019-06-07T22:43:19.599Z,18.68
2019-06-07T22:45:52.301Z,18.67
2019-06-07T22:48:24.781Z,18.67
2019-06-07T22:50:59.081Z,18.67
2019-06-07T22:53:31.776Z,18.67
2019-06-07T22:56:05.989Z,18.66
2019-06-07T22:58:38.771Z,18.66
2019-06-07T23:01:12.543Z,18.61
2019-06-07T23:03:44.962Z,18.55
2019-06-07T23:06:17.437Z,18.52
2019-06-07T23:08:50.219Z,18.51
2019-06-07T23:11:22.782Z,18.48
2019-06-07T23:13:55.364Z,18.44
2019-06-07T23:16:28.558Z,18.41
2019-06-07T23:19:01.029Z,18.38
2019-06-07T23:21:33.713Z,18.35
2019-06-07T23:24:06.493Z,18.30
2019-06-07T23:26:39.069Z,18.27
2019-06-07T23:29:12.465Z,18.24
2019-06-07T23:31:45.044Z,18.16
2019-06-07T23:34:18.761Z,18.10
2019-06-07T23:36:51.228Z,18.07
2019-06-07T23:39:23.902Z,18.05
2019-06-07T23:41:56.478Z,18.06
2019-06-07T23:44:29.058Z,18.08
2019-06-07T23:47:10.880Z,18.04
2019-06-07T23:49:35.953Z,17.97
2019-06-07T23:52:08.732Z,17.87
2019-06-07T23:54:41.210Z,17.80
2019-06-07T23:57:14.038Z,17.68
2019-06-07T23:59:46.565Z,17.58
